sensor_id;sensor_type;location;lat;lon;timestamp;pressure;altitude;pressure_sealevel;temperature;humidity
35848;BME280;22332;51.954;20.118;2023-05-11T00:02:52;100617.36;;;9.20;42.43
35848;BME280;22332;51.954;20.118;2023-05-11T00:05:58;100619.29;;;9.18;42.76
35848;BME280;22332;51.954;20.118;2023-05-11T00:09:04;100617.58;;;9.16;42.61
35848;BME280;22332;51.954;20.118;2023-05-11T00:12:09;100620.45;;;9.13;42.74
35848;BME280;22332;51.954;20.118;2023-05-11T00:15:16;100620.18;;;9.10;42.93
35848;BME280;22332;51.954;20.118;2023-05-11T00:18:22;100619.50;;;9.06;43.00
35848;BME280;22332;51.954;20.118;2023-05-11T00:21:27;100616.86;;;8.99;43.00
35848;BME280;22332;51.954;20.118;2023-05-11T00:24:33;100615.92;;;8.96;43.10
35848;BME280;22332;51.954;20.118;2023-05-11T00:27:38;100612.56;;;8.90;43.21
35848;BME280;22332;51.954;20.118;2023-05-11T00:30:49;100617.72;;;8.83;43.28
35848;BME280;22332;51.954;20.118;2023-05-11T00:33:55;100615.89;;;8.80;43.08
35848;BME280;22332;51.954;20.118;2023-05-11T00:37:01;100616.09;;;8.76;43.42
35848;BME280;22332;51.954;20.118;2023-05-11T00:40:09;100613.45;;;8.69;43.44
35848;BME280;22332;51.954;20.118;2023-05-11T00:43:14;100612.41;;;8.64;43.57
35848;BME280;22332;51.954;20.118;2023-05-11T00:46:20;100612.33;;;8.59;43.66
35848;BME280;22332;51.954;20.118;2023-05-11T00:49:26;100612.98;;;8.56;43.53
35848;BME280;22332;51.954;20.118;2023-05-11T00:52:32;100607.52;;;8.51;43.88
35848;BME280;22332;51.954;20.118;2023-05-11T00:55:37;100610.91;;;8.47;44.08
35848;BME280;22332;51.954;20.118;2023-05-11T00:58:43;100607.42;;;8.44;44.20
35848;BME280;22332;51.954;20.118;2023-05-11T01:01:49;100605.32;;;8.41;44.17
35848;BME280;22332;51.954;20.118;2023-05-11T01:04:55;100604.79;;;8.39;43.87
35848;BME280;22332;51.954;20.118;2023-05-11T01:08:06;100601.64;;;8.37;44.06
35848;BME280;22332;51.954;20.118;2023-05-11T01:11:22;100601.03;;;8.34;43.97
35848;BME280;22332;51.954;20.118;2023-05-11T01:14:37;100603.98;;;8.30;44.48
35848;BME280;22332;51.954;20.118;2023-05-11T01:17:47;100602.42;;;8.27;44.40
35848;BME280;22332;51.954;20.118;2023-05-11T01:20:58;100601.25;;;8.24;44.27
35848;BME280;22332;51.954;20.118;2023-05-11T01:24:18;100602.81;;;8.20;44.68
35848;BME280;22332;51.954;20.118;2023-05-11T01:27:47;100600.72;;;8.16;44.62
35848;BME280;22332;51.954;20.118;2023-05-11T01:31:07;100601.78;;;8.12;44.77
35848;BME280;22332;51.954;20.118;2023-05-11T01:34:17;100602.00;;;8.07;44.82
35848;BME280;22332;51.954;20.118;2023-05-11T01:37:24;100601.70;;;8.04;44.88
35848;BME280;22332;51.954;20.118;2023-05-11T01:40:32;100601.39;;;8.02;45.21
35848;BME280;22332;51.954;20.118;2023-05-11T01:43:42;100605.09;;;7.98;45.17
35848;BME280;22332;51.954;20.118;2023-05-11T01:46:49;100602.75;;;7.92;45.19
35848;BME280;22332;51.954;20.118;2023-05-11T01:49:57;100602.48;;;7.89;45.28
35848;BME280;22332;51.954;20.118;2023-05-11T01:53:05;100602.73;;;7.85;45.27
35848;BME280;22332;51.954;20.118;2023-05-11T01:56:12;100603.24;;;7.81;45.39
35848;BME280;22332;51.954;20.118;2023-05-11T01:59:19;100606.84;;;7.76;45.39
35848;BME280;22332;51.954;20.118;2023-05-11T02:02:26;100604.58;;;7.74;45.43
35848;BME280;22332;51.954;20.118;2023-05-11T02:05:33;100603.30;;;7.68;45.59
35848;BME280;22332;51.954;20.118;2023-05-11T02:08:40;100599.98;;;7.65;45.55
35848;BME280;22332;51.954;20.118;2023-05-11T02:11:47;100601.25;;;7.62;45.53
35848;BME280;22332;51.954;20.118;2023-05-11T02:14:56;100602.97;;;7.61;45.53
35848;BME280;22332;51.954;20.118;2023-05-11T02:18:02;100606.08;;;7.58;45.72
35848;BME280;22332;51.954;20.118;2023-05-11T02:21:10;100600.50;;;7.54;45.75
35848;BME280;22332;51.954;20.118;2023-05-11T02:24:16;100606.95;;;7.53;45.85
35848;BME280;22332;51.954;20.118;2023-05-11T02:27:23;100602.54;;;7.51;45.91
35848;BME280;22332;51.954;20.118;2023-05-11T02:30:31;100604.06;;;7.47;45.95
35848;BME280;22332;51.954;20.118;2023-05-11T02:33:42;100600.98;;;7.44;46.18
35848;BME280;22332;51.954;20.118;2023-05-11T02:36:50;100601.16;;;7.42;46.16
35848;BME280;22332;51.954;20.118;2023-05-11T02:40:02;100600.58;;;7.40;46.18
35848;BME280;22332;51.954;20.118;2023-05-11T02:43:12;100602.41;;;7.37;46.46
35848;BME280;22332;51.954;20.118;2023-05-11T02:46:29;100601.95;;;7.36;46.49
35848;BME280;22332;51.954;20.118;2023-05-11T02:49:37;100598.91;;;7.37;46.52
35848;BME280;22332;51.954;20.118;2023-05-11T02:52:47;100594.10;;;7.35;46.57
35848;BME280;22332;51.954;20.118;2023-05-11T02:55:55;100601.79;;;7.34;46.60
35848;BME280;22332;51.954;20.118;2023-05-11T02:59:02;100600.56;;;7.34;46.66
35848;BME280;22332;51.954;20.118;2023-05-11T03:02:08;100607.16;;;7.33;46.76
35848;BME280;22332;51.954;20.118;2023-05-11T03:05:13;100608.27;;;7.35;46.71
35848;BME280;22332;51.954;20.118;2023-05-11T03:08:20;100604.99;;;7.36;46.77
35848;BME280;22332;51.954;20.118;2023-05-11T03:11:25;100603.81;;;7.37;46.85
35848;BME280;22332;51.954;20.118;2023-05-11T03:14:32;100608.13;;;7.37;46.97
35848;BME280;22332;51.954;20.118;2023-05-11T03:17:39;100608.61;;;7.37;46.95
35848;BME280;22332;51.954;20.118;2023-05-11T03:20:47;100612.77;;;7.38;47.07
35848;BME280;22332;51.954;20.118;2023-05-11T03:23:54;100609.67;;;7.39;47.05
35848;BME280;22332;51.954;20.118;2023-05-11T03:27:01;100611.30;;;7.43;47.09
35848;BME280;22332;51.954;20.118;2023-05-11T03:30:12;100611.63;;;7.48;47.13
35848;BME280;22332;51.954;20.118;2023-05-11T03:33:21;100612.02;;;7.50;47.09
35848;BME280;22332;51.954;20.118;2023-05-11T03:36:27;100614.15;;;7.52;47.31
35848;BME280;22332;51.954;20.118;2023-05-11T03:39:35;100618.61;;;7.54;47.29
35848;BME280;22332;51.954;20.118;2023-05-11T03:42:44;100617.46;;;7.61;47.31
35848;BME280;22332;51.954;20.118;2023-05-11T03:45:52;100620.41;;;7.79;47.64
35848;BME280;22332;51.954;20.118;2023-05-11T03:48:59;100614.95;;;8.01;47.40
35848;BME280;22332;51.954;20.118;2023-05-11T03:52:06;100614.48;;;8.21;47.23
35848;BME280;22332;51.954;20.118;2023-05-11T03:55:12;100613.51;;;8.41;47.44
35848;BME280;22332;51.954;20.118;2023-05-11T03:58:18;100615.59;;;8.63;47.17
35848;BME280;22332;51.954;20.118;2023-05-11T04:01:23;100616.45;;;8.88;47.11
35848;BME280;22332;51.954;20.118;2023-05-11T04:04:30;100619.47;;;9.14;46.97
35848;BME280;22332;51.954;20.118;2023-05-11T04:07:37;100624.89;;;9.39;46.98
35848;BME280;22332;51.954;20.118;2023-05-11T04:10:43;100626.06;;;9.60;46.72
35848;BME280;22332;51.954;20.118;2023-05-11T04:13:48;100621.60;;;9.80;46.78
35848;BME280;22332;51.954;20.118;2023-05-11T04:16:54;100621.71;;;9.99;46.70
35848;BME280;22332;51.954;20.118;2023-05-11T04:20:00;100621.15;;;10.20;46.49
35848;BME280;22332;51.954;20.118;2023-05-11T04:23:05;100621.48;;;10.38;46.43
35848;BME280;22332;51.954;20.118;2023-05-11T04:26:10;100619.66;;;10.56;46.29
35848;BME280;22332;51.954;20.118;2023-05-11T04:29:16;100619.79;;;10.75;46.08
35848;BME280;22332;51.954;20.118;2023-05-11T04:32:21;100621.36;;;10.92;45.96
35848;BME280;22332;51.954;20.118;2023-05-11T04:35:27;100623.16;;;11.11;45.98
35848;BME280;22332;51.954;20.118;2023-05-11T04:38:33;100623.53;;;11.27;45.83
35848;BME280;22332;51.954;20.118;2023-05-11T04:41:39;100620.35;;;11.44;45.70
35848;BME280;22332;51.954;20.118;2023-05-11T04:44:46;100622.23;;;11.59;45.48
35848;BME280;22332;51.954;20.118;2023-05-11T04:47:55;100623.84;;;11.75;45.33
35848;BME280;22332;51.954;20.118;2023-05-11T04:51:05;100629.43;;;11.89;45.15
35848;BME280;22332;51.954;20.118;2023-05-11T04:54:16;100629.25;;;12.00;44.95
35848;BME280;22332;51.954;20.118;2023-05-11T04:57:22;100632.53;;;12.09;44.93
35848;BME280;22332;51.954;20.118;2023-05-11T05:00:28;100630.60;;;12.21;44.80
35848;BME280;22332;51.954;20.118;2023-05-11T05:03:33;100629.59;;;12.33;44.35
35848;BME280;22332;51.954;20.118;2023-05-11T05:06:39;100632.80;;;12.41;44.13
35848;BME280;22332;51.954;20.118;2023-05-11T05:09:44;100632.31;;;12.53;44.02
35848;BME280;22332;51.954;20.118;2023-05-11T05:12:52;100632.17;;;12.67;44.00
35848;BME280;22332;51.954;20.118;2023-05-11T05:15:58;100631.05;;;12.80;43.98
35848;BME280;22332;51.954;20.118;2023-05-11T05:19:04;100633.30;;;12.90;43.85
35848;BME280;22332;51.954;20.118;2023-05-11T05:22:09;100632.89;;;13.00;43.54
35848;BME280;22332;51.954;20.118;2023-05-11T05:25:15;100636.48;;;13.06;43.61
35848;BME280;22332;51.954;20.118;2023-05-11T05:28:21;100631.85;;;13.11;43.15
35848;BME280;22332;51.954;20.118;2023-05-11T05:31:26;100635.98;;;13.22;43.35
35848;BME280;22332;51.954;20.118;2023-05-11T05:34:32;100639.05;;;13.35;43.31
35848;BME280;22332;51.954;20.118;2023-05-11T05:37:38;100641.48;;;13.48;42.92
35848;BME280;22332;51.954;20.118;2023-05-11T05:40:44;100644.82;;;13.57;42.72
35848;BME280;22332;51.954;20.118;2023-05-11T05:43:49;100644.54;;;13.65;43.03
35848;BME280;22332;51.954;20.118;2023-05-11T05:46:55;100650.85;;;13.70;42.84
35848;BME280;22332;51.954;20.118;2023-05-11T05:50:03;100651.57;;;13.77;42.44
35848;BME280;22332;51.954;20.118;2023-05-11T05:53:10;100651.00;;;13.81;42.09
35848;BME280;22332;51.954;20.118;2023-05-11T05:56:16;100648.14;;;13.88;42.11
35848;BME280;22332;51.954;20.118;2023-05-11T05:59:22;100647.66;;;13.90;41.51
35848;BME280;22332;51.954;20.118;2023-05-11T06:02:32;100650.70;;;13.92;41.28
35848;BME280;22332;51.954;20.118;2023-05-11T06:05:38;100644.70;;;13.96;41.74
35848;BME280;22332;51.954;20.118;2023-05-11T06:08:43;100647.82;;;14.02;41.65
35848;BME280;22332;51.954;20.118;2023-05-11T06:11:49;100649.17;;;14.06;41.02
35848;BME280;22332;51.954;20.118;2023-05-11T06:14:54;100645.92;;;14.06;40.59
35848;BME280;22332;51.954;20.118;2023-05-11T06:18:00;100649.27;;;14.08;41.12
35848;BME280;22332;51.954;20.118;2023-05-11T06:21:07;100650.22;;;14.13;40.65
35848;BME280;22332;51.954;20.118;2023-05-11T06:24:13;100650.87;;;14.13;39.99
35848;BME280;22332;51.954;20.118;2023-05-11T06:27:19;100652.70;;;14.15;39.93
35848;BME280;22332;51.954;20.118;2023-05-11T06:30:26;100651.30;;;14.18;39.87
35848;BME280;22332;51.954;20.118;2023-05-11T06:33:32;100653.38;;;14.24;40.15
35848;BME280;22332;51.954;20.118;2023-05-11T06:36:38;100650.50;;;14.30;40.22
35848;BME280;22332;51.954;20.118;2023-05-11T06:39:44;100650.23;;;14.38;39.71
35848;BME280;22332;51.954;20.118;2023-05-11T06:42:49;100648.88;;;14.42;39.00
35848;BME280;22332;51.954;20.118;2023-05-11T06:45:55;100651.70;;;14.44;39.07
35848;BME280;22332;51.954;20.118;2023-05-11T06:49:01;100652.58;;;14.49;39.08
35848;BME280;22332;51.954;20.118;2023-05-11T06:52:07;100648.74;;;14.53;38.85
35848;BME280;22332;51.954;20.118;2023-05-11T06:55:14;100652.59;;;14.59;38.91
35848;BME280;22332;51.954;20.118;2023-05-11T06:58:19;100653.60;;;14.65;38.81
35848;BME280;22332;51.954;20.118;2023-05-11T07:01:25;100648.66;;;14.67;38.74
35848;BME280;22332;51.954;20.118;2023-05-11T07:04:31;100651.78;;;14.75;38.70
35848;BME280;22332;51.954;20.118;2023-05-11T07:07:36;100653.09;;;14.82;38.10
35848;BME280;22332;51.954;20.118;2023-05-11T07:10:42;100644.90;;;14.86;37.90
35848;BME280;22332;51.954;20.118;2023-05-11T07:13:48;100642.27;;;14.92;37.99
35848;BME280;22332;51.954;20.118;2023-05-11T07:16:53;100642.92;;;14.98;37.23
35848;BME280;22332;51.954;20.118;2023-05-11T07:19:59;100644.17;;;15.01;37.15
35848;BME280;22332;51.954;20.118;2023-05-11T07:23:04;100637.56;;;15.06;37.28
35848;BME280;22332;51.954;20.118;2023-05-11T07:26:10;100637.73;;;15.12;37.42
35848;BME280;22332;51.954;20.118;2023-05-11T07:29:15;100648.99;;;15.19;37.12
35848;BME280;22332;51.954;20.118;2023-05-11T07:32:21;100645.36;;;15.22;36.79
35848;BME280;22332;51.954;20.118;2023-05-11T07:35:26;100649.41;;;15.26;36.97
35848;BME280;22332;51.954;20.118;2023-05-11T07:38:32;100645.58;;;15.31;36.77
35848;BME280;22332;51.954;20.118;2023-05-11T07:41:37;100643.67;;;15.37;36.37
35848;BME280;22332;51.954;20.118;2023-05-11T07:44:43;100644.54;;;15.42;37.07
35848;BME280;22332;51.954;20.118;2023-05-11T07:47:49;100642.28;;;15.49;36.99
35848;BME280;22332;51.954;20.118;2023-05-11T07:50:54;100638.48;;;15.58;37.03
35848;BME280;22332;51.954;20.118;2023-05-11T07:54:00;100644.81;;;15.65;36.86
35848;BME280;22332;51.954;20.118;2023-05-11T07:57:05;100646.71;;;15.72;36.56
35848;BME280;22332;51.954;20.118;2023-05-11T08:00:13;100642.27;;;15.75;36.46
35848;BME280;22332;51.954;20.118;2023-05-11T08:03:18;100644.64;;;15.79;36.55
35848;BME280;22332;51.954;20.118;2023-05-11T08:06:24;100640.54;;;15.86;36.32
35848;BME280;22332;51.954;20.118;2023-05-11T08:09:30;100645.84;;;15.86;35.99
35848;BME280;22332;51.954;20.118;2023-05-11T08:12:36;100638.81;;;15.91;36.55
35848;BME280;22332;51.954;20.118;2023-05-11T08:15:42;100632.65;;;16.00;36.44
35848;BME280;22332;51.954;20.118;2023-05-11T08:18:48;100633.40;;;16.08;36.28
35848;BME280;22332;51.954;20.118;2023-05-11T08:21:53;100633.98;;;16.12;36.06
35848;BME280;22332;51.954;20.118;2023-05-11T08:24:59;100630.79;;;16.18;36.54
35848;BME280;22332;51.954;20.118;2023-05-11T08:28:05;100634.52;;;16.24;36.13
35848;BME280;22332;51.954;20.118;2023-05-11T08:31:10;100635.84;;;16.30;35.79
35848;BME280;22332;51.954;20.118;2023-05-11T08:34:17;100631.80;;;16.35;36.32
35848;BME280;22332;51.954;20.118;2023-05-11T08:37:23;100630.13;;;16.42;35.70
35848;BME280;22332;51.954;20.118;2023-05-11T08:40:29;100622.21;;;16.45;35.44
35848;BME280;22332;51.954;20.118;2023-05-11T08:43:36;100626.43;;;16.49;36.07
35848;BME280;22332;51.954;20.118;2023-05-11T08:46:46;100621.23;;;16.53;35.98
35848;BME280;22332;51.954;20.118;2023-05-11T08:49:53;100614.23;;;16.56;36.03
35848;BME280;22332;51.954;20.118;2023-05-11T08:52:58;100620.76;;;16.62;36.18
35848;BME280;22332;51.954;20.118;2023-05-11T08:56:05;100617.95;;;16.61;35.64
35848;BME280;22332;51.954;20.118;2023-05-11T08:59:13;100617.93;;;16.64;36.04
35848;BME280;22332;51.954;20.118;2023-05-11T09:02:20;100623.11;;;16.69;35.92
35848;BME280;22332;51.954;20.118;2023-05-11T09:05:26;100616.61;;;16.71;35.89
35848;BME280;22332;51.954;20.118;2023-05-11T09:08:33;100622.55;;;16.77;36.03
35848;BME280;22332;51.954;20.118;2023-05-11T09:11:39;100615.65;;;16.82;35.96
35848;BME280;22332;51.954;20.118;2023-05-11T09:14:46;100612.54;;;16.87;36.32
35848;BME280;22332;51.954;20.118;2023-05-11T09:17:51;100611.64;;;16.95;36.04
35848;BME280;22332;51.954;20.118;2023-05-11T09:20:57;100622.02;;;17.01;35.95
35848;BME280;22332;51.954;20.118;2023-05-11T09:24:05;100620.89;;;17.03;35.65
35848;BME280;22332;51.954;20.118;2023-05-11T09:27:11;100615.23;;;17.03;35.89
35848;BME280;22332;51.954;20.118;2023-05-11T09:30:18;100617.52;;;17.08;35.77
35848;BME280;22332;51.954;20.118;2023-05-11T09:33:25;100613.08;;;17.09;34.95
35848;BME280;22332;51.954;20.118;2023-05-11T09:36:30;100606.67;;;17.06;34.86
35848;BME280;22332;51.954;20.118;2023-05-11T09:39:37;100611.19;;;17.10;35.60
35848;BME280;22332;51.954;20.118;2023-05-11T09:42:43;100616.30;;;17.21;35.48
35848;BME280;22332;51.954;20.118;2023-05-11T09:45:49;100610.41;;;17.27;35.45
35848;BME280;22332;51.954;20.118;2023-05-11T09:48:59;100606.67;;;17.37;35.75
35848;BME280;22332;51.954;20.118;2023-05-11T09:52:06;100602.08;;;17.45;35.60
35848;BME280;22332;51.954;20.118;2023-05-11T09:55:11;100601.39;;;17.53;35.67
35848;BME280;22332;51.954;20.118;2023-05-11T09:58:17;100599.10;;;17.65;35.40
35848;BME280;22332;51.954;20.118;2023-05-11T10:01:30;100598.23;;;17.66;35.14
35848;BME280;22332;51.954;20.118;2023-05-11T10:04:36;100597.53;;;17.70;35.58
35848;BME280;22332;51.954;20.118;2023-05-11T10:07:41;100599.76;;;17.75;35.10
35848;BME280;22332;51.954;20.118;2023-05-11T10:10:48;100597.02;;;17.80;35.10
35848;BME280;22332;51.954;20.118;2023-05-11T10:13:54;100591.60;;;17.84;35.09
35848;BME280;22332;51.954;20.118;2023-05-11T10:17:01;100587.03;;;17.88;34.97
35848;BME280;22332;51.954;20.118;2023-05-11T10:20:09;100588.40;;;17.91;34.82
35848;BME280;22332;51.954;20.118;2023-05-11T10:23:14;100592.29;;;17.93;34.64
35848;BME280;22332;51.954;20.118;2023-05-11T10:26:20;100586.73;;;17.92;34.52
35848;BME280;22332;51.954;20.118;2023-05-11T10:29:26;100581.89;;;17.92;34.43
35848;BME280;22332;51.954;20.118;2023-05-11T10:32:36;100578.00;;;17.94;34.39
35848;BME280;22332;51.954;20.118;2023-05-11T10:35:44;100572.46;;;18.01;34.75
35848;BME280;22332;51.954;20.118;2023-05-11T10:38:49;100569.84;;;18.06;34.32
35848;BME280;22332;51.954;20.118;2023-05-11T10:42:07;100572.65;;;18.10;34.42
35848;BME280;22332;51.954;20.118;2023-05-11T10:45:21;100569.23;;;18.12;34.46
35848;BME280;22332;51.954;20.118;2023-05-11T10:48:47;100567.73;;;18.14;34.42
35848;BME280;22332;51.954;20.118;2023-05-11T10:52:17;100562.31;;;18.16;34.36
35848;BME280;22332;51.954;20.118;2023-05-11T10:55:33;100557.48;;;18.20;34.39
35848;BME280;22332;51.954;20.118;2023-05-11T10:58:55;100555.07;;;18.24;34.57
35848;BME280;22332;51.954;20.118;2023-05-11T11:02:04;100554.19;;;18.30;34.31
35848;BME280;22332;51.954;20.118;2023-05-11T11:05:11;100551.52;;;18.31;34.26
35848;BME280;22332;51.954;20.118;2023-05-11T11:08:20;100554.16;;;18.36;34.03
35848;BME280;22332;51.954;20.118;2023-05-11T11:11:31;100553.94;;;18.40;34.38
35848;BME280;22332;51.954;20.118;2023-05-11T11:14:54;100546.69;;;18.43;34.20
35848;BME280;22332;51.954;20.118;2023-05-11T11:18:19;100545.24;;;18.45;34.53
35848;BME280;22332;51.954;20.118;2023-05-11T11:21:39;100545.46;;;18.53;34.44
35848;BME280;22332;51.954;20.118;2023-05-11T11:24:46;100550.14;;;18.56;34.01
35848;BME280;22332;51.954;20.118;2023-05-11T11:27:58;100552.09;;;18.56;34.12
35848;BME280;22332;51.954;20.118;2023-05-11T11:31:25;100545.02;;;18.56;34.19
35848;BME280;22332;51.954;20.118;2023-05-11T11:34:35;100549.36;;;18.59;34.13
35848;BME280;22332;51.954;20.118;2023-05-11T11:38:00;100545.28;;;18.59;34.02
35848;BME280;22332;51.954;20.118;2023-05-11T11:41:08;100544.98;;;18.62;34.19
35848;BME280;22332;51.954;20.118;2023-05-11T11:44:21;100544.14;;;18.68;34.30
35848;BME280;22332;51.954;20.118;2023-05-11T11:47:27;100547.85;;;18.71;33.76
35848;BME280;22332;51.954;20.118;2023-05-11T11:50:33;100541.27;;;18.70;33.88
35848;BME280;22332;51.954;20.118;2023-05-11T11:54:04;100543.20;;;18.69;33.94
35848;BME280;22332;51.954;20.118;2023-05-11T11:57:43;100546.58;;;18.71;33.94
35848;BME280;22332;51.954;20.118;2023-05-11T12:00:54;100542.13;;;18.74;33.98
35848;BME280;22332;51.954;20.118;2023-05-11T12:04:19;100539.14;;;18.76;33.74
35848;BME280;22332;51.954;20.118;2023-05-11T12:07:32;100534.38;;;18.77;33.85
35848;BME280;22332;51.954;20.118;2023-05-11T12:10:38;100541.62;;;18.80;33.81
35848;BME280;22332;51.954;20.118;2023-05-11T12:13:44;100537.59;;;18.81;33.56
35848;BME280;22332;51.954;20.118;2023-05-11T12:17:07;100532.05;;;18.82;33.90
35848;BME280;22332;51.954;20.118;2023-05-11T12:20:19;100532.79;;;18.86;33.83
35848;BME280;22332;51.954;20.118;2023-05-11T12:23:25;100531.14;;;18.89;33.85
35848;BME280;22332;51.954;20.118;2023-05-11T12:26:32;100526.48;;;18.90;33.76
35848;BME280;22332;51.954;20.118;2023-05-11T12:29:38;100521.67;;;18.85;33.94
35848;BME280;22332;51.954;20.118;2023-05-11T12:32:44;100523.95;;;18.83;33.95
35848;BME280;22332;51.954;20.118;2023-05-11T12:35:54;100521.59;;;18.89;33.96
35848;BME280;22332;51.954;20.118;2023-05-11T12:38:59;100520.21;;;18.93;33.78
35848;BME280;22332;51.954;20.118;2023-05-11T12:42:05;100522.35;;;18.99;33.76
35848;BME280;22332;51.954;20.118;2023-05-11T12:45:12;100517.55;;;19.04;33.62
35848;BME280;22332;51.954;20.118;2023-05-11T12:48:18;100516.95;;;19.09;33.61
35848;BME280;22332;51.954;20.118;2023-05-11T12:51:47;100519.40;;;19.08;33.68
35848;BME280;22332;51.954;20.118;2023-05-11T12:54:54;100516.85;;;19.09;33.32
35848;BME280;22332;51.954;20.118;2023-05-11T12:58:10;100513.11;;;19.08;33.67
35848;BME280;22332;51.954;20.118;2023-05-11T13:01:16;100512.02;;;19.08;33.22
35848;BME280;22332;51.954;20.118;2023-05-11T13:04:31;100511.64;;;19.03;33.17
35848;BME280;22332;51.954;20.118;2023-05-11T13:07:36;100509.84;;;19.00;33.22
35848;BME280;22332;51.954;20.118;2023-05-11T13:10:42;100509.77;;;19.03;33.31
35848;BME280;22332;51.954;20.118;2023-05-11T13:13:47;100509.54;;;19.08;33.58
35848;BME280;22332;51.954;20.118;2023-05-11T13:16:56;100509.25;;;19.14;33.62
35848;BME280;22332;51.954;20.118;2023-05-11T13:23:36;100508.83;;;19.20;33.05
35848;BME280;22332;51.954;20.118;2023-05-11T13:26:42;100504.57;;;19.16;32.89
35848;BME280;22332;51.954;20.118;2023-05-11T13:29:47;100498.71;;;19.17;33.16
35848;BME280;22332;51.954;20.118;2023-05-11T13:32:52;100500.16;;;19.19;32.87
35848;BME280;22332;51.954;20.118;2023-05-11T13:35:58;100497.79;;;19.17;32.74
35848;BME280;22332;51.954;20.118;2023-05-11T13:39:04;100496.67;;;19.19;32.83
35848;BME280;22332;51.954;20.118;2023-05-11T13:42:09;100489.39;;;19.19;32.93
35848;BME280;22332;51.954;20.118;2023-05-11T13:45:16;100485.69;;;19.24;33.07
35848;BME280;22332;51.954;20.118;2023-05-11T13:48:21;100485.99;;;19.27;32.55
35848;BME280;22332;51.954;20.118;2023-05-11T13:51:27;100484.48;;;19.21;32.62
35848;BME280;22332;51.954;20.118;2023-05-11T13:54:32;100479.65;;;19.20;32.93
35848;BME280;22332;51.954;20.118;2023-05-11T13:57:38;100480.58;;;19.23;32.75
35848;BME280;22332;51.954;20.118;2023-05-11T14:00:44;100476.62;;;19.22;32.66
35848;BME280;22332;51.954;20.118;2023-05-11T14:03:54;100475.66;;;19.21;32.74
35848;BME280;22332;51.954;20.118;2023-05-11T14:07:00;100473.17;;;19.21;32.64
35848;BME280;22332;51.954;20.118;2023-05-11T14:10:07;100475.48;;;19.17;32.61
35848;BME280;22332;51.954;20.118;2023-05-11T14:13:14;100476.86;;;19.07;32.70
35848;BME280;22332;51.954;20.118;2023-05-11T14:16:20;100476.02;;;19.06;32.60
35848;BME280;22332;51.954;20.118;2023-05-11T14:19:26;100473.29;;;19.07;32.33
35848;BME280;22332;51.954;20.118;2023-05-11T14:22:31;100467.50;;;19.07;32.72
35848;BME280;22332;51.954;20.118;2023-05-11T14:25:37;100462.52;;;19.11;32.75
35848;BME280;22332;51.954;20.118;2023-05-11T14:28:42;100474.80;;;19.14;32.50
35848;BME280;22332;51.954;20.118;2023-05-11T14:31:48;100474.27;;;19.15;32.47
35848;BME280;22332;51.954;20.118;2023-05-11T14:34:53;100466.52;;;19.15;32.25
35848;BME280;22332;51.954;20.118;2023-05-11T14:37:59;100467.40;;;19.14;32.41
35848;BME280;22332;51.954;20.118;2023-05-11T14:41:05;100463.98;;;19.13;32.20
35848;BME280;22332;51.954;20.118;2023-05-11T14:44:12;100461.77;;;19.10;32.13
35848;BME280;22332;51.954;20.118;2023-05-11T14:47:17;100467.98;;;19.10;32.17
35848;BME280;22332;51.954;20.118;2023-05-11T14:50:23;100474.63;;;19.11;32.05
35848;BME280;22332;51.954;20.118;2023-05-11T14:53:28;100473.55;;;19.10;31.99
35848;BME280;22332;51.954;20.118;2023-05-11T14:56:35;100469.89;;;19.09;32.12
35848;BME280;22332;51.954;20.118;2023-05-11T14:59:41;100473.38;;;19.10;32.47
35848;BME280;22332;51.954;20.118;2023-05-11T15:02:46;100467.80;;;19.11;31.48
35848;BME280;22332;51.954;20.118;2023-05-11T15:05:52;100469.45;;;19.04;31.75
35848;BME280;22332;51.954;20.118;2023-05-11T15:08:57;100471.02;;;18.96;31.22
35848;BME280;22332;51.954;20.118;2023-05-11T15:12:03;100465.48;;;18.87;31.21
35848;BME280;22332;51.954;20.118;2023-05-11T15:15:10;100468.94;;;18.80;31.00
35848;BME280;22332;51.954;20.118;2023-05-11T15:18:15;100470.52;;;18.74;31.13
35848;BME280;22332;51.954;20.118;2023-05-11T15:21:25;100468.98;;;18.71;31.24
35848;BME280;22332;51.954;20.118;2023-05-11T15:24:37;100472.91;;;18.69;31.17
35848;BME280;22332;51.954;20.118;2023-05-11T15:27:42;100468.53;;;18.68;31.27
35848;BME280;22332;51.954;20.118;2023-05-11T15:30:49;100467.16;;;18.68;31.50
35848;BME280;22332;51.954;20.118;2023-05-11T15:33:55;100462.23;;;18.72;32.20
35848;BME280;22332;51.954;20.118;2023-05-11T15:37:00;100465.20;;;18.81;31.95
35848;BME280;22332;51.954;20.118;2023-05-11T15:40:08;100465.34;;;18.96;32.56
35848;BME280;22332;51.954;20.118;2023-05-11T15:43:14;100465.85;;;19.11;32.85
35848;BME280;22332;51.954;20.118;2023-05-11T15:46:20;100467.79;;;19.23;32.48
35848;BME280;22332;51.954;20.118;2023-05-11T15:49:26;100471.34;;;19.25;32.75
35848;BME280;22332;51.954;20.118;2023-05-11T15:52:31;100467.31;;;19.27;32.57
35848;BME280;22332;51.954;20.118;2023-05-11T15:55:37;100471.64;;;19.27;32.10
35848;BME280;22332;51.954;20.118;2023-05-11T15:58:44;100474.27;;;19.18;32.21
35848;BME280;22332;51.954;20.118;2023-05-11T16:01:49;100469.58;;;19.18;32.66
35848;BME280;22332;51.954;20.118;2023-05-11T16:04:55;100469.99;;;19.20;32.85
35848;BME280;22332;51.954;20.118;2023-05-11T16:08:00;100474.03;;;19.19;32.46
35848;BME280;22332;51.954;20.118;2023-05-11T16:11:06;100475.30;;;19.03;30.91
35848;BME280;22332;51.954;20.118;2023-05-11T16:14:11;100475.46;;;18.84;31.87
35848;BME280;22332;51.954;20.118;2023-05-11T16:17:20;100475.27;;;18.81;32.25